West View, Pennsylvania
Current Conditions -  °F | °C
As of 1:51 AM on Friday 19 Dec 2014 (Local Time) from KPIT Reporting Station
Haze Haze  
Wind Chill: 19°   Ceiling: 1100
Heat Index: 27°   Visibility: 6mi
Dew Point: 24°   Wind: 7mph
Humidity: 89%   Direction: 260°W
Pressure: 30.14"   Gusts: NA
Location:  40.5198°N, 80.0388°W
Report Text: KPIT 190651Z 26006KT 6SM BR OVC011 M03/M04 A3014 RMK AO2 SNB03E33 SLP227 P0000 T10281044
Loading
Personal Weather Stations






























Interactive Weather Map New forecast layout! Learn more

10-Day Weather Forecast

Advertisements
Track Severe Weather on mobile